Terminal Aerodrome Forecast
Issued by NWS Jackson, MS

Home | Current Version | Previous Version | Text Only | Print | Product List | Glossary On
Versions: 1 2 3 4 5 6 7 8 9 10 11 12 13 14
713
FTUS44 KJAN 291120
TAFMEI
TAF
KMEI 291120Z 2912/3012 14004KT 5SM -SHRA BR BKN009 OVC070
     FM291500 15010KT P6SM SHRA VCTS SCT015 BKN025CB
     FM292300 16008KT P6SM VCSH SCT009 BKN015=

USA.gov is the U.S. government's official web portal to all federal, state and local government web resources and services.